Skip Navigation LinksHome page > Weather > Current weather Skip Navigation Links

Current Weather

New Tokyo International (Narita), Tokyo

For information only: do not use for flight planning or navigation.
Latest weather
Observation time Thursday, July 30, 2015 6:30 PM JST
Local time Thursday, July 30, 2015 7:05 PM JST
Flight conditions Low Instrument Meteorological Conditions
Winds
Wind direction Southeast (130°)
Winds variable from 90° to 160°
Wind speed 6 mph
Visibility 5.6 mi.
Sky condition
Ceiling 0 ft. broken clouds
Cloud layer broken clouds 0 ft.
Cloud layer few clouds 3,000 ft.
Cloud layer broken clouds 12,000 ft.
Temperature 81°F
Dewpoint 75°F
Altimeter 29.80 in.Hg
Derived measurements
Relative humidity 84%
Heat index 86°F
Density altitude 2071 ft.
Remarks
No significant changes expected in the next two hours.
METAR RJAA 300930Z 13005KT 090V160 9000 FEW030 BKN120 BKN/// 27/24 Q1009 NOSIG RMK 1CU030 5AC120 A2980

Settings

Location code

InnerDrive.Weather 4.0.5567.0 Release CLR 4.0.30319.34014
Copyright ©2015 Inner Drive Technology. All rights reserved. Portions Copyright ©1986-2015 David Braverman.

Find weather

Site navigation


Skip Navigation Links

Place info

Page info

PayPal - The safer, easier way to pay online!

Return home.

Copyright ©2015 Inner Drive Technology. Purveyors of fine, hand-crafted computer software. Page printed 2015-07-30T10:05:42 UTC.